createdAt,value
2023-04-07T00:01:40.582Z,14.07
2023-04-07T00:04:11.520Z,14.10
2023-04-07T00:06:40.683Z,14.30
2023-04-07T00:09:11.412Z,14.20
2023-04-07T00:11:39.568Z,15.00
2023-04-07T00:14:10.955Z,15.30
2023-04-07T00:16:42.615Z,14.03
2023-04-07T00:19:10.858Z,13.90
2023-04-07T00:21:38.986Z,14.00
2023-04-07T00:24:09.431Z,13.63
2023-04-07T00:26:37.735Z,14.00
2023-04-07T00:29:06.063Z,13.33
2023-04-07T00:31:34.366Z,13.73
2023-04-07T00:34:06.312Z,13.90
2023-04-07T00:36:34.637Z,14.00
2023-04-07T00:39:02.830Z,14.10
2023-04-07T00:41:30.955Z,13.90
2023-04-07T00:43:59.217Z,14.20
2023-04-07T00:46:28.327Z,15.03
2023-04-07T00:48:56.759Z,14.00
2023-04-07T00:51:27.112Z,15.17
2023-04-07T00:53:57.079Z,13.97
2023-04-07T00:56:25.901Z,14.53
2023-04-07T00:58:54.165Z,14.13
2023-04-07T01:01:26.120Z,14.20
2023-04-07T01:03:59.317Z,14.10
2023-04-07T01:06:40.112Z,13.90
2023-04-07T01:09:14.824Z,14.30
2023-04-07T01:11:49.753Z,13.97
2023-04-07T01:14:21.729Z,13.90
2023-04-07T01:17:02.978Z,14.00
2023-04-07T01:19:38.064Z,13.90
2023-04-07T01:22:13.730Z,15.00
2023-04-07T01:24:58.535Z,13.70
2023-04-07T01:27:39.509Z,13.80
2023-04-07T01:30:13.704Z,14.77
2023-04-07T01:32:45.032Z,13.70
2023-04-07T01:35:15.102Z,13.80
2023-04-07T01:37:46.578Z,13.70
2023-04-07T01:40:18.568Z,14.00
2023-04-07T01:42:48.258Z,13.80
2023-04-07T01:45:19.466Z,14.00
2023-04-07T01:47:51.614Z,14.10
2023-04-07T01:50:23.552Z,14.50
2023-04-07T01:52:52.721Z,14.00
2023-04-07T01:55:21.392Z,14.20
2023-04-07T01:58:06.216Z,14.10
2023-04-07T02:00:37.463Z,14.20
2023-04-07T02:03:22.327Z,14.30
2023-04-07T02:05:57.066Z,14.30
2023-04-07T02:08:31.254Z,15.60
2023-04-07T02:11:05.470Z,14.10
2023-04-07T02:13:39.674Z,14.20
2023-04-07T02:16:16.751Z,14.27
2023-04-07T02:18:47.961Z,14.87
2023-04-07T02:21:18.524Z,14.20
2023-04-07T02:23:48.176Z,13.70
2023-04-07T02:26:16.764Z,13.70
2023-04-07T02:28:45.213Z,14.27
2023-04-07T02:31:14.956Z,13.87
2023-04-07T02:33:43.208Z,13.80
2023-04-07T02:36:11.396Z,14.40
2023-04-07T02:38:39.800Z,13.90
2023-04-07T02:41:11.109Z,13.27
2023-04-07T02:43:39.318Z,13.70
2023-04-07T02:46:07.619Z,13.60
2023-04-07T02:48:37.488Z,13.60
2023-04-07T02:51:06.207Z,13.50
2023-04-07T02:53:34.627Z,13.37
2023-04-07T02:56:03.884Z,13.50
2023-04-07T02:58:32.044Z,13.40
2023-04-07T03:01:00.406Z,13.40
2023-04-07T03:03:31.809Z,15.70
2023-04-07T03:06:09.388Z,13.70
2023-04-07T03:08:45.333Z,13.63
2023-04-07T03:11:13.857Z,14.20
2023-04-07T03:13:42.162Z,13.27
2023-04-07T03:16:10.349Z,13.63
2023-04-07T03:18:48.353Z,13.70
2023-04-07T03:21:18.525Z,13.53
2023-04-07T03:23:47.218Z,13.60
2023-04-07T03:26:15.662Z,13.73
2023-04-07T03:28:44.430Z,13.80
2023-04-07T03:31:13.445Z,13.77
2023-04-07T03:33:42.109Z,13.90
2023-04-07T03:36:11.155Z,13.70
2023-04-07T03:38:41.769Z,13.63
2023-04-07T03:41:10.509Z,13.80
2023-04-07T03:43:38.802Z,13.77
2023-04-07T03:46:07.117Z,13.67
2023-04-07T03:48:37.419Z,14.77
2023-04-07T03:51:09.068Z,13.80
2023-04-07T03:53:39.462Z,14.10
2023-04-07T03:56:28.983Z,13.80
2023-04-07T03:58:59.088Z,13.70
2023-04-07T04:01:31.451Z,14.80
2023-04-07T04:04:07.211Z,14.03
2023-04-07T04:06:36.380Z,14.10
2023-04-07T04:09:13.103Z,13.97
2023-04-07T04:11:47.878Z,13.13
2023-04-07T04:14:17.318Z,13.90
2023-04-07T04:16:51.939Z,14.00
2023-04-07T04:19:27.890Z,13.90
2023-04-07T04:21:58.528Z,14.00
2023-04-07T04:24:31.055Z,14.33
2023-04-07T04:27:04.445Z,14.20
2023-04-07T04:29:33.519Z,14.20
2023-04-07T04:32:04.572Z,14.20
2023-04-07T04:34:33.214Z,13.90
2023-04-07T04:37:03.544Z,14.10
2023-04-07T04:39:34.918Z,13.77
2023-04-07T04:42:05.693Z,13.93
2023-04-07T04:44:36.935Z,13.80
2023-04-07T04:47:07.147Z,13.80
2023-04-07T04:49:36.294Z,13.67
2023-04-07T04:52:06.373Z,13.67
2023-04-07T04:54:40.487Z,14.20
2023-04-07T04:57:11.250Z,14.30
2023-04-07T04:59:42.541Z,14.37
2023-04-07T05:02:11.326Z,14.20
2023-04-07T05:04:39.806Z,14.73
2023-04-07T05:07:24.898Z,14.30
2023-04-07T05:09:55.242Z,14.40
2023-04-07T05:12:25.172Z,14.20
2023-04-07T05:14:59.150Z,14.40
2023-04-07T05:17:27.560Z,13.90
2023-04-07T05:19:55.957Z,14.20
2023-04-07T05:22:35.085Z,14.13
2023-04-07T05:25:04.669Z,14.17
2023-04-07T05:27:34.927Z,13.80
2023-04-07T05:30:10.295Z,13.60
2023-04-07T05:32:40.452Z,13.50
2023-04-07T05:35:19.580Z,14.37
2023-04-07T05:37:53.943Z,13.90
2023-04-07T05:40:22.877Z,14.40
2023-04-07T05:42:53.150Z,13.60
2023-04-07T05:45:21.586Z,14.53
2023-04-07T05:47:52.281Z,14.10
2023-04-07T05:50:27.567Z,13.97
2023-04-07T05:52:56.544Z,13.90
2023-04-07T05:55:27.905Z,13.70
2023-04-07T05:58:01.480Z,13.70
2023-04-07T06:00:32.971Z,18.33
2023-04-07T06:03:08.170Z,20.13
2023-04-07T06:05:48.257Z,17.30
2023-04-07T06:08:17.217Z,17.70
2023-04-07T06:10:46.799Z,20.10
2023-04-07T06:13:16.489Z,18.40
2023-04-07T06:15:44.796Z,18.10
2023-04-07T06:18:12.958Z,17.83
2023-04-07T06:20:41.184Z,18.53
2023-04-07T06:23:09.432Z,20.17
2023-04-07T06:25:37.645Z,19.30
2023-04-07T06:28:05.924Z,18.03
2023-04-07T06:30:37.762Z,17.50
2023-04-07T06:33:09.664Z,20.33
2023-04-07T06:35:37.863Z,18.37
2023-04-07T06:38:06.827Z,13.70
2023-04-07T06:40:34.998Z,14.20
2023-04-07T06:43:04.073Z,13.57
2023-04-07T06:45:47.472Z,14.20
2023-04-07T06:48:15.888Z,16.00
2023-04-07T06:50:51.898Z,14.13
2023-04-07T06:53:21.734Z,13.40
2023-04-07T06:55:50.023Z,13.40
2023-04-07T06:58:20.547Z,13.60
2023-04-07T07:00:50.456Z,14.43
2023-04-07T07:03:18.948Z,14.20
2023-04-07T07:05:50.470Z,13.83
2023-04-07T07:08:18.968Z,13.20
2023-04-07T07:10:47.157Z,13.93
2023-04-07T07:13:15.744Z,12.67
2023-04-07T07:15:43.918Z,14.10
2023-04-07T07:18:13.781Z,14.43
2023-04-07T07:20:42.011Z,14.00
2023-04-07T07:23:10.423Z,15.23
2023-04-07T07:25:38.553Z,13.60
2023-04-07T07:28:06.678Z,13.63
2023-04-07T07:30:35.022Z,13.70
2023-04-07T07:33:03.616Z,13.40
2023-04-07T07:35:33.699Z,13.53
2023-04-07T07:38:02.835Z,20.60
2023-04-07T07:40:31.346Z,20.70
2023-04-07T07:43:00.138Z,20.33
2023-04-07T07:45:31.365Z,20.10
2023-04-07T07:47:59.858Z,21.40
2023-04-07T07:50:27.990Z,21.20
2023-04-07T07:53:00.397Z,21.20
2023-04-07T07:55:29.036Z,20.43
2023-04-07T07:57:57.686Z,22.10
2023-04-07T08:00:32.233Z,22.03
2023-04-07T08:03:01.105Z,21.10
2023-04-07T08:05:31.904Z,21.53
2023-04-07T08:08:06.895Z,21.50
2023-04-07T08:10:35.549Z,20.77
2023-04-07T08:13:05.488Z,19.83
2023-04-07T08:15:34.409Z,22.10
2023-04-07T08:18:07.188Z,21.77
2023-04-07T08:20:36.373Z,21.50
2023-04-07T08:23:06.941Z,21.60
2023-04-07T08:25:36.504Z,22.13
2023-04-07T08:28:04.970Z,22.80
2023-04-07T08:30:33.302Z,23.10
2023-04-07T08:33:07.254Z,22.67
2023-04-07T08:35:37.861Z,23.50
2023-04-07T08:38:09.247Z,23.37
2023-04-07T08:40:37.948Z,23.77
2023-04-07T08:43:11.008Z,23.63
2023-04-07T08:45:44.524Z,24.00
2023-04-07T08:48:18.980Z,24.13
2023-04-07T08:50:53.021Z,23.20
2023-04-07T08:53:32.917Z,23.47
2023-04-07T08:56:03.175Z,24.00
2023-04-07T08:58:31.957Z,22.60
2023-04-07T09:01:04.530Z,23.53
2023-04-07T09:03:34.009Z,22.03
2023-04-07T09:06:03.089Z,23.43
2023-04-07T09:08:33.015Z,20.83
2023-04-07T09:11:28.006Z,19.47
2023-04-07T09:13:56.940Z,18.50
2023-04-07T09:16:25.494Z,21.30
2023-04-07T09:18:56.613Z,20.57
2023-04-07T09:21:24.900Z,19.90
2023-04-07T09:23:55.057Z,20.63
2023-04-07T09:26:25.726Z,19.80
2023-04-07T09:28:56.310Z,20.67
2023-04-07T09:31:26.974Z,21.43
2023-04-07T09:33:55.582Z,21.37
2023-04-07T09:36:33.841Z,20.53
2023-04-07T09:39:10.036Z,20.43
2023-04-07T09:41:38.406Z,19.27
2023-04-07T09:44:06.894Z,19.70
2023-04-07T09:46:50.111Z,19.63
2023-04-07T09:49:20.368Z,19.80
2023-04-07T09:51:55.646Z,20.23
2023-04-07T09:54:36.052Z,19.57
2023-04-07T09:57:05.070Z,20.13
2023-04-07T09:59:35.467Z,19.20
2023-04-07T10:02:04.374Z,20.20
2023-04-07T10:04:33.152Z,19.40
2023-04-07T10:07:03.637Z,19.00
2023-04-07T10:09:32.922Z,20.07
2023-04-07T10:12:03.129Z,19.97
2023-04-07T10:14:33.655Z,20.60
2023-04-07T10:17:02.747Z,21.17
2023-04-07T10:19:33.870Z,21.23
2023-04-07T10:22:06.989Z,20.00
2023-04-07T10:24:48.258Z,20.07
2023-04-07T10:27:21.951Z,20.37
2023-04-07T10:29:52.646Z,20.10
2023-04-07T10:32:21.326Z,20.70
2023-04-07T10:35:01.274Z,20.47
2023-04-07T10:37:29.840Z,20.00
2023-04-07T10:40:29.503Z,20.30
2023-04-07T10:42:59.606Z,19.40
2023-04-07T10:45:59.473Z,18.87
2023-04-07T10:48:33.322Z,19.20
2023-04-07T10:51:16.686Z,18.87
2023-04-07T10:54:22.521Z,19.43
2023-04-07T10:57:13.254Z,19.90
2023-04-07T11:00:20.542Z,20.07
2023-04-07T11:02:49.087Z,20.73
2023-04-07T11:05:24.524Z,20.97
2023-04-07T11:07:57.818Z,19.77
2023-04-07T11:10:27.661Z,20.67
2023-04-07T11:13:07.740Z,20.30
2023-04-07T11:15:40.276Z,19.73
2023-04-07T11:18:12.067Z,19.47
2023-04-07T11:20:51.542Z,19.93
2023-04-07T11:23:33.014Z,20.13
2023-04-07T11:26:07.884Z,19.70
2023-04-07T11:28:37.121Z,19.20
2023-04-07T11:31:09.295Z,19.60
2023-04-07T11:33:39.593Z,19.30
2023-04-07T11:36:12.761Z,19.83
2023-04-07T11:38:47.255Z,19.70
2023-04-07T11:41:17.192Z,21.07
2023-04-07T11:43:52.666Z,20.93
2023-04-07T11:46:26.209Z,21.10
2023-04-07T11:48:55.907Z,21.10
2023-04-07T11:51:28.542Z,20.43
2023-04-07T11:54:02.370Z,23.13
2023-04-07T11:56:31.380Z,22.80
2023-04-07T11:59:00.259Z,22.13
2023-04-07T12:01:46.881Z,21.60
2023-04-07T12:04:19.481Z,21.07
2023-04-07T12:07:15.734Z,23.33
2023-04-07T12:09:48.506Z,22.43
2023-04-07T12:17:13.529Z,22.70
2023-04-07T12:25:56.057Z,22.30
2023-04-07T12:28:28.575Z,21.97
2023-04-07T12:31:03.691Z,21.73
2023-04-07T12:33:48.296Z,23.40
2023-04-07T12:36:27.312Z,23.20
2023-04-07T12:39:12.877Z,21.70
2023-04-07T12:41:53.869Z,22.73
2023-04-07T12:44:29.056Z,23.47
2023-04-07T12:46:57.834Z,21.80
2023-04-07T12:49:30.342Z,23.87
2023-04-07T12:51:58.990Z,23.33
2023-04-07T12:54:34.733Z,23.47
2023-04-07T12:57:03.721Z,23.80
2023-04-07T12:59:34.156Z,23.63
2023-04-07T13:02:06.217Z,22.60
2023-04-07T13:04:42.466Z,22.33
2023-04-07T13:07:15.391Z,23.20
2023-04-07T13:09:44.577Z,22.70
2023-04-07T13:12:13.474Z,22.80
2023-04-07T13:14:56.945Z,21.37
2023-04-07T13:17:29.041Z,23.60
2023-04-07T13:20:03.407Z,22.33
2023-04-07T13:22:36.001Z,22.17
2023-04-07T13:25:05.040Z,21.70
2023-04-07T13:27:33.824Z,21.30
2023-04-07T13:30:02.405Z,22.07
2023-04-07T13:32:31.537Z,22.07
2023-04-07T13:35:01.632Z,21.10
2023-04-07T13:37:32.851Z,21.53
2023-04-07T13:40:01.307Z,22.03
2023-04-07T13:42:29.739Z,21.77
2023-04-07T13:44:58.284Z,22.40
2023-04-07T13:47:27.087Z,22.97
2023-04-07T13:49:58.242Z,22.10
2023-04-07T13:52:38.261Z,21.80
2023-04-07T13:55:09.933Z,22.20
2023-04-07T13:57:38.178Z,21.90
2023-04-07T14:00:08.835Z,22.07
2023-04-07T14:02:41.386Z,21.73
2023-04-07T14:05:12.364Z,21.30
2023-04-07T14:07:45.689Z,21.20
2023-04-07T14:10:22.054Z,20.63
2023-04-07T14:12:54.384Z,20.00
2023-04-07T14:15:23.578Z,22.27
2023-04-07T14:18:03.322Z,21.00
2023-04-07T14:20:40.570Z,21.30
2023-04-07T14:23:36.444Z,21.27
2023-04-07T14:26:11.808Z,21.50
2023-04-07T14:28:46.357Z,21.13
2023-04-07T14:31:18.938Z,22.63
2023-04-07T14:33:47.801Z,22.80
2023-04-07T14:36:18.230Z,21.33
2023-04-07T14:38:48.177Z,21.40
2023-04-07T14:41:16.906Z,21.90
2023-04-07T14:43:48.774Z,22.03
2023-04-07T14:46:20.873Z,22.57
2023-04-07T14:48:52.208Z,23.80
2023-04-07T14:51:21.801Z,21.30
2023-04-07T14:53:56.355Z,23.60
2023-04-07T14:56:25.652Z,21.23
2023-04-07T14:58:54.779Z,24.80
2023-04-07T15:01:23.299Z,23.87
2023-04-07T15:03:53.502Z,25.67
2023-04-07T15:06:36.278Z,24.80
2023-04-07T15:09:06.888Z,22.77
2023-04-07T15:11:39.986Z,22.70
2023-04-07T15:14:10.567Z,23.50
2023-04-07T15:20:16.695Z,22.53
2023-04-07T15:22:54.874Z,21.50
2023-04-07T15:25:30.895Z,22.50
2023-04-07T15:28:11.035Z,21.63
2023-04-07T15:31:01.044Z,23.30
2023-04-07T15:33:33.611Z,22.73
2023-04-07T15:36:15.865Z,23.50
2023-04-07T15:39:19.945Z,23.30
2023-04-07T15:41:54.386Z,22.97
2023-04-07T15:44:25.981Z,22.87
2023-04-07T15:46:59.894Z,23.47
2023-04-07T15:49:39.261Z,21.27
2023-04-07T15:52:23.714Z,22.93
2023-04-07T15:54:53.856Z,23.17
2023-04-07T15:57:35.018Z,23.30
2023-04-07T16:00:19.422Z,22.50
2023-04-07T16:02:48.264Z,24.20
2023-04-07T16:05:16.897Z,23.63
2023-04-07T16:07:45.249Z,23.33
2023-04-07T16:10:14.114Z,22.60
2023-04-07T16:12:52.452Z,22.90
2023-04-07T16:15:32.816Z,23.43
2023-04-07T16:18:32.040Z,23.87
2023-04-07T16:21:12.153Z,25.17
2023-04-07T16:24:33.169Z,22.70
2023-04-07T16:27:15.503Z,23.80
2023-04-07T16:29:56.435Z,24.93
2023-04-07T16:32:28.069Z,23.30
2023-04-07T16:34:56.782Z,23.20
2023-04-07T16:37:25.156Z,22.00
2023-04-07T16:39:57.294Z,20.20
2023-04-07T16:42:28.509Z,21.90
2023-04-07T16:45:04.472Z,21.40
2023-04-07T16:47:33.119Z,25.13
2023-04-07T16:50:01.685Z,25.27
2023-04-07T16:52:36.102Z,21.53
2023-04-07T16:55:07.743Z,22.33
2023-04-07T16:57:37.933Z,22.47
2023-04-07T17:00:13.035Z,20.67
2023-04-07T17:02:42.444Z,22.30
2023-04-07T17:05:28.330Z,21.60
2023-04-07T17:08:00.156Z,19.90
2023-04-07T17:10:31.206Z,21.53
2023-04-07T17:12:59.556Z,19.57
2023-04-07T17:15:29.464Z,21.60
2023-04-07T17:17:58.753Z,21.90
2023-04-07T17:20:36.299Z,20.93
2023-04-07T17:23:27.088Z,20.83
2023-04-07T17:26:04.935Z,19.97
2023-04-07T17:28:45.954Z,21.00
2023-04-07T17:31:18.318Z,18.10
2023-04-07T17:33:53.100Z,22.53
2023-04-07T17:36:36.208Z,18.03
2023-04-07T17:39:09.727Z,20.63
2023-04-07T17:42:03.630Z,22.40
2023-04-07T17:44:39.704Z,23.60
2023-04-07T17:47:25.547Z,23.13
2023-04-07T17:49:58.806Z,22.87
2023-04-07T17:52:36.115Z,23.60
2023-04-07T17:55:18.636Z,22.73
2023-04-07T17:57:47.525Z,24.63
2023-04-07T18:00:25.882Z,27.07
2023-04-07T18:02:59.245Z,21.63
2023-04-07T18:05:31.207Z,23.40
2023-04-07T18:08:06.127Z,22.80
2023-04-07T18:10:47.234Z,24.70
2023-04-07T18:13:18.966Z,23.93
2023-04-07T18:15:50.530Z,30.93
2023-04-07T18:18:25.393Z,28.67
2023-04-07T18:21:07.998Z,22.70
2023-04-07T18:23:46.946Z,21.50
2023-04-07T18:26:24.037Z,21.50
2023-04-07T18:29:11.147Z,22.80
2023-04-07T18:32:22.225Z,22.77
2023-04-07T18:39:42.348Z,25.80
2023-04-07T18:43:07.522Z,25.77
2023-04-07T18:46:13.921Z,22.77
2023-04-07T18:51:53.687Z,23.10
2023-04-07T18:54:49.834Z,25.40
2023-04-07T18:57:54.435Z,23.27
2023-04-07T19:00:59.675Z,23.60
2023-04-07T19:03:47.667Z,23.00
2023-04-07T19:06:34.221Z,24.30
2023-04-07T19:12:37.537Z,23.87
2023-04-07T19:16:03.968Z,21.67
2023-04-07T19:18:43.724Z,25.27
2023-04-07T19:21:54.128Z,22.60
2023-04-07T19:25:03.216Z,21.80
2023-04-07T19:28:12.428Z,21.73
2023-04-07T19:31:01.887Z,21.10
2023-04-07T19:34:19.093Z,21.83
2023-04-07T19:37:28.767Z,20.43
2023-04-07T19:40:11.108Z,20.53
2023-04-07T19:42:59.509Z,22.03
2023-04-07T19:45:49.104Z,23.63
2023-04-07T19:48:57.589Z,21.90
2023-04-07T19:51:35.042Z,21.67
2023-04-07T19:54:03.611Z,21.40
2023-04-07T19:56:31.952Z,21.70
2023-04-07T19:59:28.437Z,21.87
2023-04-07T20:02:35.646Z,21.63
2023-04-07T20:05:17.006Z,21.40
2023-04-07T20:08:04.523Z,21.47
2023-04-07T20:10:46.019Z,21.67
2023-04-07T20:13:50.176Z,20.10
2023-04-07T20:20:03.762Z,20.77
2023-04-07T20:23:17.041Z,20.90
2023-04-07T20:26:12.367Z,19.83
2023-04-07T20:28:48.194Z,21.37
2023-04-07T20:31:28.827Z,21.20
2023-04-07T20:34:28.277Z,20.57
2023-04-07T20:37:34.979Z,19.53
2023-04-07T20:40:34.729Z,19.80
2023-04-07T20:43:25.846Z,22.77
2023-04-07T20:46:15.116Z,19.70
2023-04-07T20:49:07.859Z,21.70
2023-04-07T20:51:37.043Z,20.07
2023-04-07T20:54:06.848Z,17.27
2023-04-07T20:56:35.608Z,18.57
2023-04-07T20:59:03.804Z,19.33
2023-04-07T21:01:32.662Z,18.63
2023-04-07T21:04:07.512Z,17.93
2023-04-07T21:06:42.221Z,19.57
2023-04-07T21:09:25.579Z,18.10
2023-04-07T21:12:11.383Z,18.93
2023-04-07T21:14:40.078Z,18.73
2023-04-07T21:17:34.296Z,18.57
2023-04-07T21:20:37.648Z,19.00
2023-04-07T21:23:15.006Z,18.80
2023-04-07T21:26:08.716Z,18.07
2023-04-07T21:28:45.324Z,19.20
2023-04-07T21:31:28.665Z,21.10
2023-04-07T21:34:24.712Z,20.07
2023-04-07T21:37:00.882Z,19.90
2023-04-07T21:39:43.841Z,19.07
2023-04-07T21:42:25.103Z,20.13
2023-04-07T21:45:06.276Z,19.40
2023-04-07T21:48:13.082Z,19.30
2023-04-07T21:51:16.984Z,19.70
2023-04-07T21:53:50.747Z,19.63
2023-04-07T21:56:20.441Z,19.57
2023-04-07T22:02:08.460Z,19.27
2023-04-07T22:04:37.404Z,18.83
2023-04-07T22:07:05.774Z,19.07
2023-04-07T22:09:34.062Z,19.90
2023-04-07T22:12:02.807Z,20.10
2023-04-07T22:14:31.147Z,20.10
2023-04-07T22:16:59.512Z,20.53
2023-04-07T22:19:29.336Z,19.23
2023-04-07T22:21:57.633Z,13.73
2023-04-07T22:24:25.930Z,13.60
2023-04-07T22:26:55.578Z,13.77
2023-04-07T22:29:38.110Z,13.40
2023-04-07T22:32:09.207Z,13.80
2023-04-07T22:34:58.513Z,13.30
2023-04-07T22:37:29.080Z,13.50
2023-04-07T22:39:58.629Z,13.63
2023-04-07T22:42:27.051Z,14.00
2023-04-07T22:44:55.433Z,15.87
2023-04-07T22:47:23.620Z,19.57
2023-04-07T22:49:53.276Z,19.30
2023-04-07T22:52:21.513Z,20.93
2023-04-07T22:54:49.833Z,20.90
2023-04-07T22:57:20.474Z,22.97
2023-04-07T22:59:49.774Z,20.80
2023-04-07T23:05:31.022Z,20.23
2023-04-07T23:08:20.783Z,21.50
2023-04-07T23:11:06.629Z,21.50
2023-04-07T23:16:20.183Z,22.00
2023-04-07T23:18:50.031Z,22.97
2023-04-07T23:21:31.360Z,22.60
2023-04-07T23:23:59.888Z,25.63
2023-04-07T23:26:29.287Z,23.27
2023-04-07T23:31:54.229Z,23.73
2023-04-07T23:34:39.249Z,24.13
2023-04-07T23:37:09.222Z,23.90
2023-04-07T23:39:38.413Z,23.70
2023-04-07T23:42:08.126Z,22.80
2023-04-07T23:47:18.838Z,22.70
2023-04-07T23:49:48.130Z,23.00
2023-04-07T23:52:21.518Z,23.23
2023-04-07T23:54:49.901Z,23.00
2023-04-07T23:57:18.151Z,22.73
